sensor_id;sensor_type;location;lat;lon;timestamp;P1;durP1;ratioP1;P2;durP2;ratioP2
55330;SDS011;58851;42.984;20.336;2023-02-05T00:01:12;30.92;;;18.80;;
55330;SDS011;58851;42.984;20.336;2023-02-05T00:03:38;33.97;;;19.50;;
55330;SDS011;58851;42.984;20.336;2023-02-05T00:06:04;19.80;;;10.60;;
55330;SDS011;58851;42.984;20.336;2023-02-05T00:08:30;14.98;;;10.55;;
55330;SDS011;58851;42.984;20.336;2023-02-05T00:10:57;12.43;;;8.20;;
55330;SDS011;58851;42.984;20.336;2023-02-05T00:13:23;10.48;;;7.45;;
55330;SDS011;58851;42.984;20.336;2023-02-05T00:15:49;18.85;;;12.60;;
55330;SDS011;58851;42.984;20.336;2023-02-05T00:18:14;34.15;;;17.52;;
55330;SDS011;58851;42.984;20.336;2023-02-05T00:20:40;20.33;;;13.85;;
55330;SDS011;58851;42.984;20.336;2023-02-05T00:23:06;18.42;;;11.35;;
55330;SDS011;58851;42.984;20.336;2023-02-05T00:25:32;19.20;;;11.43;;
55330;SDS011;58851;42.984;20.336;2023-02-05T00:27:58;17.75;;;11.63;;
55330;SDS011;58851;42.984;20.336;2023-02-05T00:30:24;22.63;;;14.85;;
55330;SDS011;58851;42.984;20.336;2023-02-05T00:32:49;27.77;;;16.35;;
55330;SDS011;58851;42.984;20.336;2023-02-05T00:35:15;17.95;;;11.90;;
55330;SDS011;58851;42.984;20.336;2023-02-05T00:37:41;24.98;;;14.30;;
55330;SDS011;58851;42.984;20.336;2023-02-05T00:40:07;14.00;;;9.35;;
55330;SDS011;58851;42.984;20.336;2023-02-05T00:42:33;17.85;;;11.43;;
55330;SDS011;58851;42.984;20.336;2023-02-05T00:44:59;22.85;;;12.13;;
55330;SDS011;58851;42.984;20.336;2023-02-05T00:47:24;22.95;;;13.52;;
55330;SDS011;58851;42.984;20.336;2023-02-05T00:49:50;10.88;;;5.95;;
55330;SDS011;58851;42.984;20.336;2023-02-05T00:52:16;52.55;;;9.45;;
55330;SDS011;58851;42.984;20.336;2023-02-05T00:54:41;13.45;;;7.82;;
55330;SDS011;58851;42.984;20.336;2023-02-05T00:57:07;15.77;;;6.25;;
55330;SDS011;58851;42.984;20.336;2023-02-05T00:59:33;8.65;;;5.95;;
55330;SDS011;58851;42.984;20.336;2023-02-05T01:01:59;9.45;;;5.88;;
55330;SDS011;58851;42.984;20.336;2023-02-05T01:04:24;11.25;;;5.50;;
55330;SDS011;58851;42.984;20.336;2023-02-05T01:06:50;8.85;;;7.00;;
55330;SDS011;58851;42.984;20.336;2023-02-05T01:09:16;16.17;;;6.50;;
55330;SDS011;58851;42.984;20.336;2023-02-05T01:11:41;8.02;;;6.05;;
55330;SDS011;58851;42.984;20.336;2023-02-05T01:14:07;13.70;;;6.55;;
55330;SDS011;58851;42.984;20.336;2023-02-05T01:16:33;18.63;;;8.90;;
55330;SDS011;58851;42.984;20.336;2023-02-05T01:18:58;15.07;;;7.82;;
55330;SDS011;58851;42.984;20.336;2023-02-05T01:21:24;9.10;;;5.53;;
55330;SDS011;58851;42.984;20.336;2023-02-05T01:23:50;10.55;;;5.78;;
55330;SDS011;58851;42.984;20.336;2023-02-05T01:26:16;14.35;;;7.85;;
55330;SDS011;58851;42.984;20.336;2023-02-05T01:28:42;11.35;;;7.57;;
55330;SDS011;58851;42.984;20.336;2023-02-05T01:31:08;15.90;;;6.93;;
55330;SDS011;58851;42.984;20.336;2023-02-05T01:33:34;9.95;;;6.53;;
55330;SDS011;58851;42.984;20.336;2023-02-05T01:36:00;10.07;;;7.40;;
55330;SDS011;58851;42.984;20.336;2023-02-05T01:38:25;13.68;;;8.55;;
55330;SDS011;58851;42.984;20.336;2023-02-05T01:40:51;12.73;;;9.00;;
55330;SDS011;58851;42.984;20.336;2023-02-05T01:43:17;9.80;;;7.88;;
55330;SDS011;58851;42.984;20.336;2023-02-05T01:45:48;12.27;;;8.02;;
55330;SDS011;58851;42.984;20.336;2023-02-05T01:48:26;10.52;;;7.22;;
55330;SDS011;58851;42.984;20.336;2023-02-05T01:50:58;19.65;;;10.23;;
55330;SDS011;58851;42.984;20.336;2023-02-05T01:53:29;11.85;;;7.03;;
55330;SDS011;58851;42.984;20.336;2023-02-05T01:56:05;8.75;;;5.35;;
55330;SDS011;58851;42.984;20.336;2023-02-05T01:58:35;12.18;;;5.32;;
55330;SDS011;58851;42.984;20.336;2023-02-05T02:01:05;9.95;;;7.35;;
55330;SDS011;58851;42.984;20.336;2023-02-05T02:03:31;10.05;;;7.07;;
55330;SDS011;58851;42.984;20.336;2023-02-05T02:05:57;14.13;;;7.22;;
55330;SDS011;58851;42.984;20.336;2023-02-05T02:08:24;13.35;;;8.32;;
55330;SDS011;58851;42.984;20.336;2023-02-05T02:10:50;10.38;;;6.63;;
55330;SDS011;58851;42.984;20.336;2023-02-05T02:13:19;8.55;;;6.57;;
55330;SDS011;58851;42.984;20.336;2023-02-05T02:15:46;7.18;;;5.70;;
55330;SDS011;58851;42.984;20.336;2023-02-05T02:18:14;8.45;;;6.20;;
55330;SDS011;58851;42.984;20.336;2023-02-05T02:21:12;9.90;;;6.68;;
55330;SDS011;58851;42.984;20.336;2023-02-05T02:29:22;8.27;;;6.43;;
55330;SDS011;58851;42.984;20.336;2023-02-05T02:32:01;11.18;;;8.40;;
55330;SDS011;58851;42.984;20.336;2023-02-05T02:34:37;7.35;;;5.05;;
55330;SDS011;58851;42.984;20.336;2023-02-05T02:43:03;6.50;;;5.38;;
55330;SDS011;58851;42.984;20.336;2023-02-05T02:45:48;8.60;;;4.65;;
55330;SDS011;58851;42.984;20.336;2023-02-05T02:48:20;7.40;;;5.55;;
55330;SDS011;58851;42.984;20.336;2023-02-05T02:50:50;10.00;;;5.97;;
55330;SDS011;58851;42.984;20.336;2023-02-05T02:53:19;32.33;;;15.75;;
55330;SDS011;58851;42.984;20.336;2023-02-05T02:55:53;10.07;;;6.32;;
55330;SDS011;58851;42.984;20.336;2023-02-05T02:58:26;7.00;;;4.80;;
55330;SDS011;58851;42.984;20.336;2023-02-05T03:00:56;10.30;;;6.18;;
55330;SDS011;58851;42.984;20.336;2023-02-05T03:03:25;8.18;;;5.57;;
55330;SDS011;58851;42.984;20.336;2023-02-05T03:05:55;8.73;;;5.95;;
55330;SDS011;58851;42.984;20.336;2023-02-05T03:08:26;5.93;;;4.95;;
55330;SDS011;58851;42.984;20.336;2023-02-05T03:11:01;8.40;;;4.97;;
55330;SDS011;58851;42.984;20.336;2023-02-05T03:13:29;6.38;;;4.15;;
55330;SDS011;58851;42.984;20.336;2023-02-05T03:15:56;10.95;;;6.15;;
55330;SDS011;58851;42.984;20.336;2023-02-05T03:18:22;8.40;;;5.90;;
55330;SDS011;58851;42.984;20.336;2023-02-05T03:23:22;6.57;;;4.77;;
55330;SDS011;58851;42.984;20.336;2023-02-05T03:25:50;9.52;;;5.13;;
55330;SDS011;58851;42.984;20.336;2023-02-05T03:28:15;10.07;;;7.28;;
55330;SDS011;58851;42.984;20.336;2023-02-05T03:39:25;6.30;;;4.40;;
55330;SDS011;58851;42.984;20.336;2023-02-05T03:47:31;5.50;;;4.40;;
55330;SDS011;58851;42.984;20.336;2023-02-05T03:50:30;13.18;;;5.72;;
55330;SDS011;58851;42.984;20.336;2023-02-05T03:53:15;8.98;;;5.50;;
55330;SDS011;58851;42.984;20.336;2023-02-05T03:55:58;7.55;;;5.43;;
55330;SDS011;58851;42.984;20.336;2023-02-05T03:58:35;8.98;;;5.75;;
55330;SDS011;58851;42.984;20.336;2023-02-05T04:01:03;7.93;;;5.15;;
55330;SDS011;58851;42.984;20.336;2023-02-05T04:03:31;21.13;;;11.48;;
55330;SDS011;58851;42.984;20.336;2023-02-05T04:05:57;16.42;;;10.10;;
55330;SDS011;58851;42.984;20.336;2023-02-05T04:08:23;10.32;;;6.53;;
55330;SDS011;58851;42.984;20.336;2023-02-05T04:10:48;9.50;;;6.28;;
55330;SDS011;58851;42.984;20.336;2023-02-05T04:13:14;5.95;;;4.72;;
55330;SDS011;58851;42.984;20.336;2023-02-05T04:15:40;10.45;;;5.82;;
55330;SDS011;58851;42.984;20.336;2023-02-05T04:18:05;6.78;;;5.68;;
55330;SDS011;58851;42.984;20.336;2023-02-05T04:20:32;7.57;;;4.50;;
55330;SDS011;58851;42.984;20.336;2023-02-05T04:22:58;9.70;;;5.53;;
55330;SDS011;58851;42.984;20.336;2023-02-05T04:25:24;7.25;;;4.95;;
55330;SDS011;58851;42.984;20.336;2023-02-05T04:27:49;7.90;;;4.70;;
55330;SDS011;58851;42.984;20.336;2023-02-05T04:30:15;22.05;;;10.45;;
55330;SDS011;58851;42.984;20.336;2023-02-05T04:32:41;5.53;;;4.25;;
55330;SDS011;58851;42.984;20.336;2023-02-05T04:35:07;8.18;;;5.90;;
55330;SDS011;58851;42.984;20.336;2023-02-05T04:37:33;8.93;;;5.53;;
55330;SDS011;58851;42.984;20.336;2023-02-05T04:39:58;8.25;;;5.75;;
55330;SDS011;58851;42.984;20.336;2023-02-05T04:42:24;4.82;;;4.03;;
55330;SDS011;58851;42.984;20.336;2023-02-05T04:44:50;5.80;;;4.30;;
55330;SDS011;58851;42.984;20.336;2023-02-05T04:47:18;7.88;;;5.47;;
55330;SDS011;58851;42.984;20.336;2023-02-05T04:49:43;5.28;;;4.38;;
55330;SDS011;58851;42.984;20.336;2023-02-05T04:52:09;9.13;;;5.53;;
55330;SDS011;58851;42.984;20.336;2023-02-05T04:54:35;7.00;;;4.55;;
55330;SDS011;58851;42.984;20.336;2023-02-05T04:57:02;6.53;;;4.55;;
55330;SDS011;58851;42.984;20.336;2023-02-05T04:59:28;6.13;;;4.82;;
55330;SDS011;58851;42.984;20.336;2023-02-05T05:01:57;30.50;;;15.48;;
55330;SDS011;58851;42.984;20.336;2023-02-05T05:04:23;19.27;;;9.50;;
55330;SDS011;58851;42.984;20.336;2023-02-05T05:06:49;8.20;;;5.93;;
55330;SDS011;58851;42.984;20.336;2023-02-05T05:09:15;6.30;;;5.07;;
55330;SDS011;58851;42.984;20.336;2023-02-05T05:11:40;13.75;;;8.73;;
55330;SDS011;58851;42.984;20.336;2023-02-05T05:14:06;15.05;;;7.45;;
55330;SDS011;58851;42.984;20.336;2023-02-05T05:16:32;11.52;;;6.43;;
55330;SDS011;58851;42.984;20.336;2023-02-05T05:18:58;10.55;;;8.90;;
55330;SDS011;58851;42.984;20.336;2023-02-05T05:21:24;9.90;;;7.35;;
55330;SDS011;58851;42.984;20.336;2023-02-05T05:23:49;10.05;;;6.93;;
55330;SDS011;58851;42.984;20.336;2023-02-05T05:26:15;17.63;;;10.18;;
55330;SDS011;58851;42.984;20.336;2023-02-05T05:28:41;14.85;;;9.55;;
55330;SDS011;58851;42.984;20.336;2023-02-05T05:33:37;8.55;;;4.72;;
55330;SDS011;58851;42.984;20.336;2023-02-05T05:36:04;33.05;;;6.90;;
55330;SDS011;58851;42.984;20.336;2023-02-05T05:38:31;19.95;;;9.77;;
55330;SDS011;58851;42.984;20.336;2023-02-05T05:40:56;14.27;;;9.25;;
55330;SDS011;58851;42.984;20.336;2023-02-05T05:43:40;19.05;;;10.00;;
55330;SDS011;58851;42.984;20.336;2023-02-05T05:46:16;10.43;;;7.25;;
55330;SDS011;58851;42.984;20.336;2023-02-05T05:48:51;18.08;;;11.45;;
55330;SDS011;58851;42.984;20.336;2023-02-05T05:51:21;13.15;;;8.02;;
55330;SDS011;58851;42.984;20.336;2023-02-05T05:53:48;19.58;;;10.57;;
55330;SDS011;58851;42.984;20.336;2023-02-05T05:56:15;14.98;;;9.75;;
55330;SDS011;58851;42.984;20.336;2023-02-05T05:58:42;14.60;;;9.02;;
55330;SDS011;58851;42.984;20.336;2023-02-05T06:01:09;15.07;;;9.52;;
55330;SDS011;58851;42.984;20.336;2023-02-05T06:03:35;15.45;;;10.13;;
55330;SDS011;58851;42.984;20.336;2023-02-05T06:06:04;20.45;;;12.30;;
55330;SDS011;58851;42.984;20.336;2023-02-05T06:08:31;13.65;;;9.88;;
55330;SDS011;58851;42.984;20.336;2023-02-05T06:10:58;17.60;;;11.15;;
55330;SDS011;58851;42.984;20.336;2023-02-05T06:13:24;9.70;;;6.40;;
55330;SDS011;58851;42.984;20.336;2023-02-05T06:15:50;9.85;;;7.28;;
55330;SDS011;58851;42.984;20.336;2023-02-05T06:18:16;26.40;;;15.95;;
55330;SDS011;58851;42.984;20.336;2023-02-05T06:20:42;11.73;;;8.25;;
55330;SDS011;58851;42.984;20.336;2023-02-05T06:23:08;16.92;;;11.02;;
55330;SDS011;58851;42.984;20.336;2023-02-05T06:25:36;34.42;;;21.52;;
55330;SDS011;58851;42.984;20.336;2023-02-05T06:28:02;10.23;;;7.72;;
55330;SDS011;58851;42.984;20.336;2023-02-05T06:30:27;17.58;;;11.13;;
55330;SDS011;58851;42.984;20.336;2023-02-05T06:32:53;10.13;;;7.15;;
55330;SDS011;58851;42.984;20.336;2023-02-05T06:35:19;11.95;;;8.13;;
55330;SDS011;58851;42.984;20.336;2023-02-05T06:37:45;11.77;;;7.68;;
55330;SDS011;58851;42.984;20.336;2023-02-05T06:40:11;17.55;;;12.35;;
55330;SDS011;58851;42.984;20.336;2023-02-05T06:42:37;24.33;;;17.25;;
55330;SDS011;58851;42.984;20.336;2023-02-05T06:45:03;17.05;;;12.07;;
55330;SDS011;58851;42.984;20.336;2023-02-05T06:47:29;17.35;;;11.68;;
55330;SDS011;58851;42.984;20.336;2023-02-05T06:49:55;20.02;;;15.07;;
55330;SDS011;58851;42.984;20.336;2023-02-05T06:52:21;13.38;;;9.18;;
55330;SDS011;58851;42.984;20.336;2023-02-05T06:54:46;11.48;;;7.38;;
55330;SDS011;58851;42.984;20.336;2023-02-05T06:57:12;27.65;;;16.75;;
55330;SDS011;58851;42.984;20.336;2023-02-05T06:59:38;23.08;;;13.90;;
55330;SDS011;58851;42.984;20.336;2023-02-05T07:02:03;19.48;;;12.52;;
55330;SDS011;58851;42.984;20.336;2023-02-05T07:04:29;15.38;;;12.18;;
55330;SDS011;58851;42.984;20.336;2023-02-05T07:06:56;21.48;;;16.05;;
55330;SDS011;58851;42.984;20.336;2023-02-05T07:09:22;12.30;;;8.77;;
55330;SDS011;58851;42.984;20.336;2023-02-05T07:11:48;12.13;;;8.95;;
55330;SDS011;58851;42.984;20.336;2023-02-05T07:14:14;10.52;;;8.48;;
55330;SDS011;58851;42.984;20.336;2023-02-05T07:16:40;8.38;;;6.97;;
55330;SDS011;58851;42.984;20.336;2023-02-05T07:19:06;9.90;;;7.63;;
55330;SDS011;58851;42.984;20.336;2023-02-05T07:21:32;11.65;;;7.57;;
55330;SDS011;58851;42.984;20.336;2023-02-05T07:23:57;13.65;;;8.50;;
55330;SDS011;58851;42.984;20.336;2023-02-05T07:26:23;33.22;;;18.38;;
55330;SDS011;58851;42.984;20.336;2023-02-05T07:28:49;22.27;;;14.07;;
55330;SDS011;58851;42.984;20.336;2023-02-05T07:31:15;26.30;;;16.20;;
55330;SDS011;58851;42.984;20.336;2023-02-05T07:33:43;19.00;;;12.02;;
55330;SDS011;58851;42.984;20.336;2023-02-05T07:36:10;16.85;;;8.48;;
55330;SDS011;58851;42.984;20.336;2023-02-05T07:38:40;29.88;;;19.08;;
55330;SDS011;58851;42.984;20.336;2023-02-05T07:41:09;27.55;;;16.35;;
55330;SDS011;58851;42.984;20.336;2023-02-05T07:43:36;21.52;;;13.65;;
55330;SDS011;58851;42.984;20.336;2023-02-05T07:46:04;31.05;;;21.95;;
55330;SDS011;58851;42.984;20.336;2023-02-05T07:48:31;23.70;;;12.02;;
55330;SDS011;58851;42.984;20.336;2023-02-05T07:50:58;45.25;;;25.05;;
55330;SDS011;58851;42.984;20.336;2023-02-05T07:53:24;34.67;;;23.70;;
55330;SDS011;58851;42.984;20.336;2023-02-05T07:55:49;28.27;;;17.40;;
55330;SDS011;58851;42.984;20.336;2023-02-05T07:58:16;29.67;;;19.77;;
55330;SDS011;58851;42.984;20.336;2023-02-05T08:00:41;28.55;;;18.23;;
55330;SDS011;58851;42.984;20.336;2023-02-05T08:03:07;36.42;;;24.20;;
55330;SDS011;58851;42.984;20.336;2023-02-05T08:05:34;35.83;;;24.10;;
55330;SDS011;58851;42.984;20.336;2023-02-05T08:08:01;21.83;;;15.32;;
55330;SDS011;58851;42.984;20.336;2023-02-05T08:10:26;15.20;;;8.88;;
55330;SDS011;58851;42.984;20.336;2023-02-05T08:12:52;25.58;;;17.48;;
55330;SDS011;58851;42.984;20.336;2023-02-05T08:15:18;11.25;;;7.28;;
55330;SDS011;58851;42.984;20.336;2023-02-05T08:17:44;19.40;;;12.88;;
55330;SDS011;58851;42.984;20.336;2023-02-05T08:20:10;18.08;;;9.85;;
55330;SDS011;58851;42.984;20.336;2023-02-05T08:22:37;10.85;;;7.47;;
55330;SDS011;58851;42.984;20.336;2023-02-05T08:25:06;18.67;;;14.18;;
55330;SDS011;58851;42.984;20.336;2023-02-05T08:27:36;27.45;;;17.48;;
55330;SDS011;58851;42.984;20.336;2023-02-05T08:30:04;112.88;;;55.28;;
55330;SDS011;58851;42.984;20.336;2023-02-05T08:32:34;12.73;;;9.15;;
55330;SDS011;58851;42.984;20.336;2023-02-05T08:35:00;18.50;;;11.48;;
55330;SDS011;58851;42.984;20.336;2023-02-05T08:37:26;24.17;;;15.35;;
55330;SDS011;58851;42.984;20.336;2023-02-05T08:39:52;18.23;;;16.33;;
55330;SDS011;58851;42.984;20.336;2023-02-05T08:42:18;15.43;;;11.68;;
55330;SDS011;58851;42.984;20.336;2023-02-05T08:44:44;46.42;;;24.63;;
55330;SDS011;58851;42.984;20.336;2023-02-05T08:47:12;23.08;;;14.50;;
55330;SDS011;58851;42.984;20.336;2023-02-05T08:49:38;33.72;;;20.05;;
55330;SDS011;58851;42.984;20.336;2023-02-05T08:52:03;92.38;;;41.70;;
55330;SDS011;58851;42.984;20.336;2023-02-05T08:54:29;25.27;;;15.38;;
55330;SDS011;58851;42.984;20.336;2023-02-05T08:56:55;14.40;;;10.43;;
55330;SDS011;58851;42.984;20.336;2023-02-05T08:59:21;14.88;;;10.93;;
55330;SDS011;58851;42.984;20.336;2023-02-05T09:01:47;19.83;;;13.38;;
55330;SDS011;58851;42.984;20.336;2023-02-05T09:04:13;16.77;;;13.18;;
55330;SDS011;58851;42.984;20.336;2023-02-05T09:06:44;13.05;;;9.77;;
55330;SDS011;58851;42.984;20.336;2023-02-05T09:09:10;24.90;;;16.88;;
55330;SDS011;58851;42.984;20.336;2023-02-05T09:11:36;23.58;;;16.33;;
55330;SDS011;58851;42.984;20.336;2023-02-05T09:14:03;44.33;;;25.92;;
55330;SDS011;58851;42.984;20.336;2023-02-05T09:16:29;14.32;;;11.02;;
55330;SDS011;58851;42.984;20.336;2023-02-05T09:18:55;19.48;;;11.43;;
55330;SDS011;58851;42.984;20.336;2023-02-05T09:21:22;29.73;;;20.15;;
55330;SDS011;58851;42.984;20.336;2023-02-05T09:23:48;28.35;;;20.52;;
55330;SDS011;58851;42.984;20.336;2023-02-05T09:26:14;23.08;;;16.80;;
55330;SDS011;58851;42.984;20.336;2023-02-05T09:28:40;33.17;;;23.88;;
55330;SDS011;58851;42.984;20.336;2023-02-05T09:31:07;21.65;;;15.32;;
55330;SDS011;58851;42.984;20.336;2023-02-05T09:33:35;29.60;;;22.15;;
55330;SDS011;58851;42.984;20.336;2023-02-05T09:36:05;14.63;;;12.02;;
55330;SDS011;58851;42.984;20.336;2023-02-05T09:38:57;25.63;;;15.68;;
55330;SDS011;58851;42.984;20.336;2023-02-05T09:41:38;29.48;;;15.98;;
55330;SDS011;58851;42.984;20.336;2023-02-05T09:44:20;20.25;;;18.08;;
55330;SDS011;58851;42.984;20.336;2023-02-05T09:52:52;15.52;;;9.90;;
55330;SDS011;58851;42.984;20.336;2023-02-05T09:55:32;17.92;;;11.50;;
55330;SDS011;58851;42.984;20.336;2023-02-05T09:58:04;20.83;;;16.30;;
55330;SDS011;58851;42.984;20.336;2023-02-05T10:00:43;40.17;;;24.95;;
55330;SDS011;58851;42.984;20.336;2023-02-05T10:03:16;65.72;;;34.80;;
55330;SDS011;58851;42.984;20.336;2023-02-05T10:14:04;19.13;;;11.65;;
55330;SDS011;58851;42.984;20.336;2023-02-05T10:19:20;25.27;;;16.40;;
55330;SDS011;58851;42.984;20.336;2023-02-05T10:21:58;15.60;;;10.27;;
55330;SDS011;58851;42.984;20.336;2023-02-05T10:27:37;19.75;;;14.27;;
55330;SDS011;58851;42.984;20.336;2023-02-05T10:30:06;43.33;;;25.48;;
55330;SDS011;58851;42.984;20.336;2023-02-05T10:35:26;20.35;;;12.95;;
55330;SDS011;58851;42.984;20.336;2023-02-05T10:38:01;14.98;;;10.63;;
55330;SDS011;58851;42.984;20.336;2023-02-05T10:40:38;18.15;;;10.45;;
55330;SDS011;58851;42.984;20.336;2023-02-05T10:45:59;23.83;;;14.18;;
55330;SDS011;58851;42.984;20.336;2023-02-05T10:51:09;18.23;;;13.23;;
55330;SDS011;58851;42.984;20.336;2023-02-05T10:53:41;26.58;;;18.85;;
55330;SDS011;58851;42.984;20.336;2023-02-05T10:56:07;18.25;;;13.90;;
55330;SDS011;58851;42.984;20.336;2023-02-05T10:58:51;18.13;;;13.32;;
55330;SDS011;58851;42.984;20.336;2023-02-05T11:04:00;16.13;;;12.23;;
55330;SDS011;58851;42.984;20.336;2023-02-05T11:06:32;18.38;;;11.88;;
55330;SDS011;58851;42.984;20.336;2023-02-05T11:11:52;22.93;;;14.27;;
55330;SDS011;58851;42.984;20.336;2023-02-05T11:17:23;30.75;;;17.27;;
55330;SDS011;58851;42.984;20.336;2023-02-05T11:19:55;24.95;;;16.38;;
55330;SDS011;58851;42.984;20.336;2023-02-05T11:22:29;16.17;;;11.50;;
55330;SDS011;58851;42.984;20.336;2023-02-05T11:25:03;18.08;;;12.00;;
55330;SDS011;58851;42.984;20.336;2023-02-05T11:27:53;35.33;;;23.33;;
55330;SDS011;58851;42.984;20.336;2023-02-05T11:36:02;8.90;;;7.03;;
55330;SDS011;58851;42.984;20.336;2023-02-05T11:41:10;19.75;;;12.70;;
55330;SDS011;58851;42.984;20.336;2023-02-05T11:43:48;15.85;;;11.68;;
55330;SDS011;58851;42.984;20.336;2023-02-05T11:46:16;11.05;;;7.75;;
55330;SDS011;58851;42.984;20.336;2023-02-05T11:49:04;12.85;;;8.38;;
55330;SDS011;58851;42.984;20.336;2023-02-05T11:54:02;15.02;;;11.25;;
55330;SDS011;58851;42.984;20.336;2023-02-05T11:56:31;15.43;;;13.00;;
55330;SDS011;58851;42.984;20.336;2023-02-05T12:01:24;13.75;;;10.13;;
55330;SDS011;58851;42.984;20.336;2023-02-05T12:03:58;34.72;;;25.38;;
55330;SDS011;58851;42.984;20.336;2023-02-05T12:06:37;25.42;;;17.23;;
55330;SDS011;58851;42.984;20.336;2023-02-05T12:09:21;44.30;;;27.15;;
55330;SDS011;58851;42.984;20.336;2023-02-05T12:47:26;14.35;;;9.40;;
55330;SDS011;58851;42.984;20.336;2023-02-05T12:58:10;22.80;;;15.82;;
55330;SDS011;58851;42.984;20.336;2023-02-05T13:00:49;32.70;;;19.75;;
55330;SDS011;58851;42.984;20.336;2023-02-05T13:03:28;26.58;;;20.08;;
55330;SDS011;58851;42.984;20.336;2023-02-05T13:08:38;16.48;;;10.77;;
55330;SDS011;58851;42.984;20.336;2023-02-05T13:11:14;14.00;;;10.02;;
55330;SDS011;58851;42.984;20.336;2023-02-05T13:16:22;12.20;;;9.18;;
55330;SDS011;58851;42.984;20.336;2023-02-05T13:18:57;15.75;;;11.65;;
55330;SDS011;58851;42.984;20.336;2023-02-05T13:21:37;41.58;;;24.13;;
55330;SDS011;58851;42.984;20.336;2023-02-05T13:24:32;28.15;;;18.73;;
55330;SDS011;58851;42.984;20.336;2023-02-05T13:27:33;23.00;;;16.10;;
55330;SDS011;58851;42.984;20.336;2023-02-05T13:30:36;23.00;;;18.08;;
55330;SDS011;58851;42.984;20.336;2023-02-05T13:33:14;34.25;;;19.30;;
55330;SDS011;58851;42.984;20.336;2023-02-05T13:46:26;31.33;;;22.00;;
55330;SDS011;58851;42.984;20.336;2023-02-05T13:54:15;19.63;;;13.65;;
55330;SDS011;58851;42.984;20.336;2023-02-05T13:57:11;22.23;;;15.30;;
55330;SDS011;58851;42.984;20.336;2023-02-05T13:59:52;30.42;;;17.95;;
55330;SDS011;58851;42.984;20.336;2023-02-05T14:02:40;36.17;;;18.95;;
55330;SDS011;58851;42.984;20.336;2023-02-05T14:05:06;18.58;;;12.90;;
55330;SDS011;58851;42.984;20.336;2023-02-05T14:07:34;17.08;;;11.32;;
55330;SDS011;58851;42.984;20.336;2023-02-05T14:10:06;24.60;;;15.35;;
55330;SDS011;58851;42.984;20.336;2023-02-05T14:13:06;35.00;;;22.63;;
55330;SDS011;58851;42.984;20.336;2023-02-05T14:15:41;36.65;;;22.95;;
55330;SDS011;58851;42.984;20.336;2023-02-05T14:18:12;12.70;;;10.95;;
55330;SDS011;58851;42.984;20.336;2023-02-05T14:26:54;31.08;;;16.67;;
55330;SDS011;58851;42.984;20.336;2023-02-05T14:37:29;28.67;;;18.00;;
55330;SDS011;58851;42.984;20.336;2023-02-05T14:43:04;30.88;;;21.17;;
55330;SDS011;58851;42.984;20.336;2023-02-05T14:45:47;33.35;;;20.58;;
55330;SDS011;58851;42.984;20.336;2023-02-05T14:48:19;19.73;;;14.07;;
55330;SDS011;58851;42.984;20.336;2023-02-05T14:51:01;51.80;;;35.10;;
55330;SDS011;58851;42.984;20.336;2023-02-05T14:53:30;26.00;;;18.13;;
55330;SDS011;58851;42.984;20.336;2023-02-05T14:55:58;36.80;;;23.13;;
55330;SDS011;58851;42.984;20.336;2023-02-05T14:58:27;36.10;;;20.63;;
55330;SDS011;58851;42.984;20.336;2023-02-05T15:03:56;19.73;;;14.65;;
55330;SDS011;58851;42.984;20.336;2023-02-05T15:06:24;15.52;;;11.70;;
55330;SDS011;58851;42.984;20.336;2023-02-05T15:11:40;12.98;;;8.90;;
55330;SDS011;58851;42.984;20.336;2023-02-05T15:14:40;9.70;;;6.93;;
55330;SDS011;58851;42.984;20.336;2023-02-05T15:19:43;20.27;;;13.80;;
55330;SDS011;58851;42.984;20.336;2023-02-05T15:27:53;41.97;;;27.10;;
55330;SDS011;58851;42.984;20.336;2023-02-05T15:30:24;50.45;;;24.92;;
55330;SDS011;58851;42.984;20.336;2023-02-05T15:33:07;18.85;;;14.02;;
55330;SDS011;58851;42.984;20.336;2023-02-05T15:35:41;35.63;;;19.67;;
55330;SDS011;58851;42.984;20.336;2023-02-05T15:38:24;76.43;;;37.05;;
55330;SDS011;58851;42.984;20.336;2023-02-05T15:40:54;28.65;;;17.08;;
55330;SDS011;58851;42.984;20.336;2023-02-05T15:43:22;22.10;;;14.80;;
55330;SDS011;58851;42.984;20.336;2023-02-05T15:45:51;22.20;;;13.70;;
55330;SDS011;58851;42.984;20.336;2023-02-05T15:48:27;27.00;;;17.75;;
55330;SDS011;58851;42.984;20.336;2023-02-05T15:53:53;31.42;;;22.77;;
55330;SDS011;58851;42.984;20.336;2023-02-05T15:59:04;28.90;;;18.50;;
55330;SDS011;58851;42.984;20.336;2023-02-05T16:02:32;23.90;;;18.08;;
55330;SDS011;58851;42.984;20.336;2023-02-05T16:04:44;43.40;;;29.35;;
55330;SDS011;58851;42.984;20.336;2023-02-05T16:07:34;58.92;;;35.90;;
55330;SDS011;58851;42.984;20.336;2023-02-05T16:10:13;43.10;;;25.38;;
55330;SDS011;58851;42.984;20.336;2023-02-05T16:13:00;26.08;;;17.67;;
55330;SDS011;58851;42.984;20.336;2023-02-05T16:15:27;27.95;;;13.05;;
55330;SDS011;58851;42.984;20.336;2023-02-05T16:18:36;36.47;;;26.10;;
55330;SDS011;58851;42.984;20.336;2023-02-05T16:24:14;12.93;;;10.27;;
55330;SDS011;58851;42.984;20.336;2023-02-05T16:29:27;35.45;;;20.45;;
55330;SDS011;58851;42.984;20.336;2023-02-05T16:32:09;30.88;;;21.83;;
55330;SDS011;58851;42.984;20.336;2023-02-05T16:34:44;37.08;;;22.80;;
55330;SDS011;58851;42.984;20.336;2023-02-05T16:37:13;28.30;;;17.77;;
55330;SDS011;58851;42.984;20.336;2023-02-05T16:39:43;26.83;;;17.52;;
55330;SDS011;58851;42.984;20.336;2023-02-05T16:44:39;26.35;;;17.73;;
55330;SDS011;58851;42.984;20.336;2023-02-05T16:47:17;22.05;;;14.98;;
55330;SDS011;58851;42.984;20.336;2023-02-05T16:49:45;39.67;;;26.73;;
55330;SDS011;58851;42.984;20.336;2023-02-05T16:52:31;21.67;;;12.82;;
55330;SDS011;58851;42.984;20.336;2023-02-05T16:57:49;35.17;;;23.17;;
55330;SDS011;58851;42.984;20.336;2023-02-05T17:00:18;46.90;;;31.10;;
55330;SDS011;58851;42.984;20.336;2023-02-05T17:02:47;19.50;;;13.98;;
55330;SDS011;58851;42.984;20.336;2023-02-05T17:05:22;25.83;;;17.67;;
55330;SDS011;58851;42.984;20.336;2023-02-05T17:07:55;28.50;;;21.88;;
55330;SDS011;58851;42.984;20.336;2023-02-05T17:10:54;21.25;;;15.00;;
55330;SDS011;58851;42.984;20.336;2023-02-05T17:16:13;59.92;;;36.42;;
55330;SDS011;58851;42.984;20.336;2023-02-05T17:18:59;48.20;;;29.88;;
55330;SDS011;58851;42.984;20.336;2023-02-05T17:21:27;56.45;;;36.08;;
55330;SDS011;58851;42.984;20.336;2023-02-05T17:23:58;81.35;;;51.92;;
55330;SDS011;58851;42.984;20.336;2023-02-05T17:26:27;97.75;;;58.30;;
55330;SDS011;58851;42.984;20.336;2023-02-05T17:28:56;89.50;;;58.22;;
55330;SDS011;58851;42.984;20.336;2023-02-05T17:31:28;56.60;;;35.92;;
55330;SDS011;58851;42.984;20.336;2023-02-05T17:33:57;49.15;;;31.67;;
55330;SDS011;58851;42.984;20.336;2023-02-05T17:36:23;32.10;;;22.95;;
55330;SDS011;58851;42.984;20.336;2023-02-05T17:38:49;34.13;;;23.38;;
55330;SDS011;58851;42.984;20.336;2023-02-05T17:44:09;26.50;;;17.08;;
55330;SDS011;58851;42.984;20.336;2023-02-05T17:46:36;37.53;;;23.63;;
55330;SDS011;58851;42.984;20.336;2023-02-05T17:49:02;35.85;;;19.95;;
55330;SDS011;58851;42.984;20.336;2023-02-05T17:51:28;21.58;;;13.20;;
55330;SDS011;58851;42.984;20.336;2023-02-05T17:53:54;54.20;;;27.98;;